»·PEaware :: N32314 KPSP-KONT

N32314 :: KPSP-KONT

FLIGHT INFORMATION

Flight Status: Arrived
Operator: Privately registered:
United States
More flights under this callsign
Pilot: John O. (31453)
Aircraft: CESSNA 172 SKYHAWK
(C172)
More flights by this aircraft type
Origin: KPSP Palm Springs Intl
United States
Destination: KONT Ontario Intl
United States
More flights between these airports :: More routes between these airports
Route: +
File this flight plan on PilotEdge
Remarks:
Altitude:
(Current/Filed)
6,500ft
Speed:
(Current/Filed)
0kts
Departed: 30-Sep-20 12:29 PM
Arrived: 30-Sep-20 01:06 PM
Distance/Time
Traveled:
56nm/0:37
Distance/Time
To Go:
Arrived

Flight Plot

Page will automatically refresh every two minutes.


Map Options




Map Legend


Flown Route
Filed Route
Departure Airport
Arrival Airport
Navaid (VOR, NDB)
Fix

Horizontal Profiles

Position Reports

Time Latitude Longitude Heading Altitude Ground
Speed
30-Sep-20 12:18 33.826036 -116.509961 171 433ft 0kts
30-Sep-20 12:19 33.826036 -116.509961 171 433ft 0kts
30-Sep-20 12:20 33.826036 -116.509961 171 433ft 0kts
30-Sep-20 12:21 33.826036 -116.509961 171 433ft 0kts
30-Sep-20 12:22 33.825766 -116.509093 88 432ft 11kts
30-Sep-20 12:23 33.825546 -116.506019 147 425ft 12kts
30-Sep-20 12:24 33.821903 -116.502794 143 413ft 17kts
30-Sep-20 12:25 33.818513 -116.499084 90 402ft 15kts
30-Sep-20 12:26 33.818507 -116.498905 93 401ft 0kts
30-Sep-20 12:27 33.819803 -116.498907 317 403ft 12kts
30-Sep-20 12:28 33.825833 -116.504006 323 436ft 68kts
30-Sep-20 12:29 33.841858 -116.519505 327 1123ft 75kts
30-Sep-20 12:30 33.861942 -116.530686 300 1786ft 81kts
30-Sep-20 12:31 33.872127 -116.554706 305 2471ft 80kts
30-Sep-20 12:32 33.885561 -116.576883 306 3053ft 83kts
30-Sep-20 12:33 33.897026 -116.600579 289 3656ft 82kts
30-Sep-20 12:34 33.903057 -116.627329 278 4302ft 82kts
30-Sep-20 12:35 33.908291 -116.654568 288 4930ft 84kts
30-Sep-20 12:36 33.908872 -116.682701 270 5529ft 86kts
30-Sep-20 12:37 33.909254 -116.711298 272 6127ft 86kts
30-Sep-20 12:38 33.917657 -116.738563 292 6527ft 90kts
30-Sep-20 12:39 33.921565 -116.770100 268 6552ft 105kts
30-Sep-20 12:40 33.918948 -116.804191 276 6585ft 102kts
30-Sep-20 12:41 33.924541 -116.836116 288 6549ft 103kts
30-Sep-20 12:42 33.931104 -116.869984 278 6516ft 103kts
30-Sep-20 12:43 33.938444 -116.903510 294 6496ft 104kts
30-Sep-20 12:44 33.950235 -116.935358 279 6489ft 104kts
30-Sep-20 12:45 33.956147 -116.969326 284 6478ft 104kts
30-Sep-20 12:46 33.964658 -117.002557 288 6462ft 104kts
30-Sep-20 12:47 33.973302 -117.035849 282 6455ft 104kts
30-Sep-20 12:48 33.980811 -117.069372 289 6441ft 104kts
30-Sep-20 12:49 33.990273 -117.102294 291 6444ft 103kts
30-Sep-20 12:50 34.004806 -117.132231 295 6439ft 103kts
30-Sep-20 12:51 34.017704 -117.163191 300 6437ft 104kts
30-Sep-20 12:52 34.031737 -117.193571 292 6447ft 103kts
30-Sep-20 12:53 34.045505 -117.224050 298 6455ft 104kts
30-Sep-20 12:54 34.053711 -117.257136 274 6463ft 103kts
30-Sep-20 12:55 34.054382 -117.291771 275 6464ft 103kts
30-Sep-20 12:56 34.057660 -117.324188 275 6468ft 103kts
30-Sep-20 12:57 34.057577 -117.358869 267 6469ft 103kts
30-Sep-20 12:58 34.058709 -117.393421 278 6471ft 103kts
30-Sep-20 12:59 34.059870 -117.427940 259 5681ft 101kts
30-Sep-20 13:00 34.056654 -117.462395 267 4521ft 102kts
30-Sep-20 13:02 34.054732 -117.496480 261 3431ft 101kts
30-Sep-20 13:03 34.054723 -117.527701 274 2637ft 90kts
30-Sep-20 13:04 34.054749 -117.556638 270 1856ft 76kts
30-Sep-20 13:05 34.054940 -117.581423 270 994ft 69kts
30-Sep-20 13:06 34.054081 -117.594521 236 934ft 0kts
30-Sep-20 13:07 34.053893 -117.596658 269 936ft 27kts
30-Sep-20 13:08 34.053016 -117.602228 131 932ft 15kts
30-Sep-20 13:09 34.052588 -117.601639 129 930ft 0kts
30-Sep-20 13:10 34.052588 -117.601639 129 930ft 0kts
30-Sep-20 13:11 34.052588 -117.601639 129 930ft 0kts
30-Sep-20 13:12 34.052588 -117.601639 129 930ft 0kts
30-Sep-20 13:13 34.052588 -117.601639 129 930ft 0kts
30-Sep-20 13:14 34.052588 -117.601639 129 930ft 0kts
30-Sep-20 13:15 34.052588 -117.601639 129 930ft 0kts
30-Sep-20 13:16 34.052588 -117.601639 129 930ft 0kts
30-Sep-20 13:17 34.052588 -117.601639 129 930ft 0kts
30-Sep-20 13:18 34.052588 -117.601639 129 930ft 0kts
30-Sep-20 13:18 34.052588 -117.601639 129 930ft 0kts
30-Sep-20 13:20 34.052588 -117.601639 129 930ft 0kts

Navigation Log

Ident Type
Flight plan parsing failed, navigation log unavailable